This is the latest recevied weather packets stored in our database for station/object K4ZZR. If no packets are shown the sender has not sent any weather packets the latest 1 day(s).
| Time | Temp. | Humidity | Pressure | Rain* | Wind** | Luminosity | Snow |
|---|---|---|---|---|---|---|---|
| 1778074662 | 26.11° C | 85% | 1016.8 hPa | 0 mm | - | 333 W/m² | - |
| 1778073146 | 26.67° C | 85% | 1016.5 hPa | 0 mm | - | 286 W/m² | - |
| 1778072843 | 25.56° C | 87% | 1016.7 hPa | 0 mm | - | 320 W/m² | - |
| 1778072540 | 25.56° C | 87% | 1016.4 hPa | 0 mm | - | 190 W/m² | - |
| 1778069819 | 25° C | 89% | 1016.4 hPa | 0 mm | - | 113 W/m² | - |
| 1778069515 | 25° C | 90% | 1016.2 hPa | 0 mm | - | 118 W/m² | - |
| 1778067701 | 23.33° C | 95% | 1016.4 hPa | 0 mm | - | 80 W/m² | - |
| 1778067400 | 23.33° C | 96% | 1016.6 hPa | 0 mm | - | 75 W/m² | - |
| 1778066490 | 22.22° C | 99% | 1016.2 hPa | 0 mm | - | 55 W/m² | - |
| 1778066188 | 22.22° C | 99% | 1016.3 hPa | 0 mm | - | 46 W/m² | - |
| 1778065280 | 21.67° C | 99% | 1015.8 hPa | 0 mm | - | 27 W/m² | - |
| 1778063766 | 21.67° C | 99% | 1015.6 hPa | 0 mm | - | 2 W/m² | - |
| 1778063161 | 21.11° C | 99% | 1015.5 hPa | 0 mm | - | 0 W/m² | - |
| 1778062858 | 21.11° C | 99% | 1015.4 hPa | 0 mm | - | 0 W/m² | - |
| 1778061346 | 21.11° C | 99% | 1015.4 hPa | 0 mm | - | 0 W/m² | - |
| 1778061042 | 21.11° C | 99% | 1015.6 hPa | 0 mm | - | 0 W/m² | - |
| 1778060740 | 21.11° C | 99% | 1015.4 hPa | 0 mm | - | 0 W/m² | - |
| 1778060136 | 21.11° C | 98% | 1015.1 hPa | 0 mm | - | 0 W/m² | - |
| 1778059833 | 21.11° C | 98% | 1015.2 hPa | 0 mm | - | 0 W/m² | - |
| 1778059227 | 21.11° C | 98% | 1015.1 hPa | 0 mm | - | 0 W/m² | - |
| 1778058622 | 21.67° C | 97% | 1015.1 hPa | 0 mm | - | 0 W/m² | - |
| 1778056197 | 22.22° C | 94% | 1015.2 hPa | 0 mm | - | 0 W/m² | - |
| 1778055894 | 22.78° C | 94% | 1015.1 hPa | 0 mm | - | 0 W/m² | - |
| 1778054682 | 22.78° C | 93% | 1015.1 hPa | 0 mm | - | 0 W/m² | - |
| 1778054380 | 22.78° C | 93% | 1015.1 hPa | 0 mm | - | 0 W/m² | - |
* Rain latest hour (hover to see other rain measurements)
** Current wind speed in m/s (hover to see current wind gust speed)